createdAt,value
2022-07-30T00:00:50.434Z,5.18
2022-07-30T00:03:20.627Z,5.50
2022-07-30T00:05:50.666Z,6.00
2022-07-30T00:08:20.664Z,5.90
2022-07-30T00:10:51.626Z,5.82
2022-07-30T00:13:21.797Z,6.15
2022-07-30T00:15:53.491Z,6.85
2022-07-30T00:18:23.394Z,6.45
2022-07-30T00:20:53.482Z,6.82
2022-07-30T00:23:26.669Z,7.00
2022-07-30T00:25:56.875Z,6.45
2022-07-30T00:28:26.695Z,6.13
2022-07-30T00:30:58.163Z,6.18
2022-07-30T00:33:28.146Z,5.80
2022-07-30T00:35:58.286Z,6.57
2022-07-30T00:38:28.230Z,7.57
2022-07-30T00:40:59.335Z,6.13
2022-07-30T00:43:30.356Z,6.78
2022-07-30T00:46:01.600Z,6.45
2022-07-30T00:48:31.668Z,6.43
2022-07-30T00:51:01.742Z,7.38
2022-07-30T00:53:33.378Z,7.13
2022-07-30T00:56:04.831Z,7.88
2022-07-30T00:58:35.020Z,7.28
2022-07-30T01:01:06.458Z,6.88
2022-07-30T01:03:38.423Z,6.70
2022-07-30T01:06:14.149Z,6.72
2022-07-30T01:08:44.525Z,6.30
2022-07-30T01:11:14.570Z,6.38
2022-07-30T01:13:46.244Z,6.13
2022-07-30T01:16:18.461Z,6.45
2022-07-30T01:19:06.796Z,6.45
2022-07-30T01:21:41.390Z,6.93
2022-07-30T01:24:23.525Z,6.45
2022-07-30T01:26:56.554Z,7.10
2022-07-30T01:29:28.722Z,6.40
2022-07-30T01:32:01.222Z,6.20
2022-07-30T01:34:35.197Z,6.80
2022-07-30T01:37:08.544Z,6.82
2022-07-30T01:39:40.108Z,6.28
2022-07-30T01:42:14.693Z,6.85
2022-07-30T01:44:47.971Z,6.43
2022-07-30T01:47:19.954Z,6.38
2022-07-30T01:49:52.208Z,6.13
2022-07-30T01:52:23.776Z,6.65
2022-07-30T01:54:57.564Z,5.78
2022-07-30T02:00:03.336Z,6.55
2022-07-30T02:02:33.345Z,5.75
2022-07-30T02:05:04.002Z,6.45
2022-07-30T02:07:40.604Z,7.10
2022-07-30T02:10:15.523Z,6.38
2022-07-30T02:12:52.416Z,6.78
2022-07-30T02:15:30.359Z,6.63
2022-07-30T02:18:04.091Z,6.93
2022-07-30T02:20:38.404Z,6.45
2022-07-30T02:23:12.435Z,6.90
2022-07-30T02:25:48.302Z,6.80
2022-07-30T02:28:22.604Z,6.60
2022-07-30T02:31:01.124Z,7.03
2022-07-30T02:33:41.173Z,7.53
2022-07-30T02:36:21.055Z,6.90
2022-07-30T02:38:52.552Z,6.78
2022-07-30T02:41:25.001Z,6.80
2022-07-30T02:43:58.227Z,6.68
2022-07-30T02:46:29.336Z,7.43
2022-07-30T02:49:00.397Z,7.00
2022-07-30T02:51:32.154Z,6.88
2022-07-30T02:54:04.504Z,7.20
2022-07-30T02:56:36.644Z,7.60
2022-07-30T02:59:09.871Z,7.05
2022-07-30T03:01:40.063Z,6.32
2022-07-30T03:04:11.286Z,6.88
2022-07-30T03:06:43.152Z,6.88
2022-07-30T03:09:16.766Z,6.60
2022-07-30T03:11:48.600Z,12.15
2022-07-30T03:14:20.833Z,18.50
2022-07-30T03:16:57.496Z,7.28
2022-07-30T03:19:32.391Z,16.20
2022-07-30T03:22:04.469Z,9.50
2022-07-30T03:24:36.269Z,17.25
2022-07-30T03:27:08.140Z,7.60
2022-07-30T03:29:41.051Z,7.80
2022-07-30T03:32:13.708Z,7.20
2022-07-30T03:34:45.529Z,8.50
2022-07-30T03:37:17.278Z,7.95
2022-07-30T03:39:48.138Z,8.85
2022-07-30T03:42:18.424Z,8.05
2022-07-30T03:44:50.580Z,8.68
2022-07-30T03:47:23.818Z,9.52
2022-07-30T03:49:53.879Z,9.15
2022-07-30T03:52:23.843Z,12.30
2022-07-30T03:54:54.373Z,11.38
2022-07-30T03:57:24.501Z,11.52
2022-07-30T03:59:56.025Z,12.80
2022-07-30T04:02:26.024Z,15.38
2022-07-30T04:04:56.417Z,14.82
2022-07-30T04:07:26.635Z,13.95
2022-07-30T04:09:56.558Z,11.93
2022-07-30T04:12:27.144Z,12.90
2022-07-30T04:14:59.191Z,11.80
2022-07-30T04:17:36.480Z,11.40
2022-07-30T04:20:14.214Z,11.60
2022-07-30T04:22:46.909Z,12.00
2022-07-30T04:25:24.069Z,12.32
2022-07-30T04:28:03.145Z,11.38
2022-07-30T04:30:35.418Z,12.02
2022-07-30T04:33:06.343Z,11.90
2022-07-30T04:35:51.139Z,11.68
2022-07-30T04:38:22.331Z,12.10
2022-07-30T04:40:52.536Z,12.68
2022-07-30T04:43:22.618Z,12.65
2022-07-30T04:45:54.443Z,12.20
2022-07-30T04:48:26.745Z,12.60
2022-07-30T04:51:00.614Z,13.57
2022-07-30T04:56:02.598Z,11.30
2022-07-30T04:58:34.904Z,12.70
2022-07-30T05:01:07.053Z,12.60
2022-07-30T05:03:47.964Z,13.20
2022-07-30T05:06:18.744Z,13.20
2022-07-30T05:08:49.484Z,11.60
2022-07-30T05:11:19.485Z,11.55
2022-07-30T05:13:50.498Z,12.45
2022-07-30T05:16:22.662Z,10.23
2022-07-30T05:18:52.823Z,11.90
2022-07-30T05:21:23.068Z,12.05
2022-07-30T05:23:53.130Z,11.55
2022-07-30T05:26:27.666Z,13.02
2022-07-30T05:28:58.105Z,11.32
2022-07-30T05:31:29.502Z,14.77
2022-07-30T05:34:03.669Z,15.07
2022-07-30T05:36:34.428Z,16.52
2022-07-30T05:39:05.657Z,18.88
2022-07-30T05:41:35.750Z,19.42
2022-07-30T05:44:06.228Z,18.45
2022-07-30T05:46:38.034Z,19.17
2022-07-30T05:49:08.356Z,19.75
2022-07-30T05:51:38.462Z,19.48
2022-07-30T05:54:08.429Z,18.65
2022-07-30T05:56:38.496Z,22.15
2022-07-30T05:59:08.447Z,20.92
2022-07-30T06:01:39.892Z,20.63
2022-07-30T06:04:09.840Z,19.13
2022-07-30T06:06:39.755Z,17.38
2022-07-30T06:09:10.282Z,15.77
2022-07-30T06:11:40.434Z,16.02
2022-07-30T06:14:10.880Z,14.40
2022-07-30T06:16:45.452Z,15.27
2022-07-30T06:19:19.675Z,14.70
2022-07-30T06:22:05.480Z,22.50
2022-07-30T06:24:37.382Z,25.85
2022-07-30T06:27:08.124Z,25.92
2022-07-30T06:29:38.143Z,30.02
2022-07-30T06:32:09.652Z,32.28
2022-07-30T06:34:39.585Z,31.30
2022-07-30T06:37:10.748Z,24.05
2022-07-30T06:39:57.685Z,19.27
2022-07-30T06:42:29.038Z,21.33
2022-07-30T06:44:59.016Z,21.55
2022-07-30T06:47:31.358Z,20.67
2022-07-30T06:50:03.110Z,18.10
2022-07-30T06:52:34.087Z,20.58
2022-07-30T06:55:04.887Z,17.95
2022-07-30T06:57:40.112Z,17.10
2022-07-30T07:00:13.365Z,14.32
2022-07-30T07:02:44.770Z,17.17
2022-07-30T07:05:14.860Z,19.33
2022-07-30T07:07:57.837Z,15.68
2022-07-30T07:10:29.399Z,16.95
2022-07-30T07:13:01.772Z,14.38
2022-07-30T07:15:36.607Z,13.32
2022-07-30T07:18:09.605Z,15.55
2022-07-30T07:20:39.960Z,13.77
2022-07-30T07:23:11.998Z,11.27
2022-07-30T07:25:42.642Z,11.45
2022-07-30T07:28:13.665Z,12.43
2022-07-30T07:30:44.521Z,10.23
2022-07-30T07:33:16.464Z,11.90
2022-07-30T07:35:50.292Z,10.43
2022-07-30T07:38:20.686Z,8.88
2022-07-30T07:40:50.756Z,10.15
2022-07-30T07:43:20.737Z,9.45
2022-07-30T07:45:50.659Z,8.40
2022-07-30T07:48:22.490Z,8.82
2022-07-30T07:50:55.014Z,7.57
2022-07-30T07:53:28.321Z,8.05
2022-07-30T07:55:59.769Z,8.05
2022-07-30T07:58:31.032Z,5.45
2022-07-30T08:01:01.932Z,6.20
2022-07-30T08:03:33.643Z,6.07
2022-07-30T08:06:05.724Z,6.60
2022-07-30T08:08:37.649Z,6.25
2022-07-30T08:11:08.237Z,5.47
2022-07-30T08:13:52.165Z,5.90
2022-07-30T08:16:23.767Z,5.88
2022-07-30T08:18:55.098Z,5.95
2022-07-30T08:21:25.569Z,6.85
2022-07-30T08:23:55.493Z,5.97
2022-07-30T08:26:25.946Z,4.57
2022-07-30T08:28:55.746Z,5.38
2022-07-30T08:31:25.689Z,5.32
2022-07-30T08:33:57.364Z,5.55
2022-07-30T08:36:27.361Z,5.72
2022-07-30T08:38:57.432Z,5.38
2022-07-30T08:41:28.228Z,5.68
2022-07-30T08:44:01.363Z,5.40
2022-07-30T08:46:33.217Z,5.13
2022-07-30T08:49:07.562Z,4.85
2022-07-30T08:51:41.103Z,5.78
2022-07-30T08:54:11.078Z,5.63
2022-07-30T08:56:41.054Z,6.38
2022-07-30T08:59:12.904Z,6.00
2022-07-30T09:01:42.864Z,5.55
2022-07-30T09:04:14.431Z,5.22
2022-07-30T09:06:44.370Z,5.82
2022-07-30T09:09:14.224Z,5.90
2022-07-30T09:11:44.769Z,6.40
2022-07-30T09:14:16.325Z,6.95
2022-07-30T09:16:46.632Z,6.00
2022-07-30T09:19:19.915Z,6.53
2022-07-30T09:21:58.228Z,7.05
2022-07-30T09:24:29.164Z,7.05
2022-07-30T09:27:00.885Z,6.55
2022-07-30T09:29:32.456Z,6.35
2022-07-30T09:32:04.255Z,6.55
2022-07-30T09:34:37.729Z,5.85
2022-07-30T09:37:20.450Z,6.50
2022-07-30T09:39:59.469Z,6.40
2022-07-30T09:42:32.076Z,6.43
2022-07-30T09:45:08.232Z,8.20
2022-07-30T09:47:39.699Z,6.88
2022-07-30T09:50:18.011Z,6.38
2022-07-30T09:53:11.786Z,6.30
2022-07-30T09:55:42.602Z,5.70
2022-07-30T09:58:20.028Z,6.65
2022-07-30T10:00:59.422Z,27.55
2022-07-30T10:03:33.870Z,8.35
2022-07-30T10:06:14.027Z,11.27
2022-07-30T10:08:48.255Z,8.10
2022-07-30T10:11:22.779Z,6.55
2022-07-30T10:13:56.745Z,8.07
2022-07-30T10:16:31.086Z,6.68
2022-07-30T10:19:01.663Z,5.93
2022-07-30T10:21:36.147Z,6.32
2022-07-30T10:24:08.213Z,6.03
2022-07-30T10:26:38.427Z,6.90
2022-07-30T10:29:08.576Z,6.15
2022-07-30T10:31:48.862Z,6.32
2022-07-30T10:34:23.589Z,6.13
2022-07-30T10:37:04.830Z,6.03
2022-07-30T10:39:40.106Z,6.78
2022-07-30T10:42:23.081Z,6.20
2022-07-30T10:45:18.087Z,5.88
2022-07-30T10:47:50.018Z,6.45
2022-07-30T10:50:22.682Z,6.15
2022-07-30T10:52:56.260Z,6.53
2022-07-30T10:55:32.865Z,6.50
2022-07-30T10:58:12.414Z,5.68
2022-07-30T11:01:00.974Z,6.45
2022-07-30T11:03:41.702Z,6.70
2022-07-30T11:06:29.345Z,6.93
2022-07-30T11:09:00.710Z,6.00
2022-07-30T11:12:01.401Z,5.75
2022-07-30T11:15:07.286Z,6.32
2022-07-30T11:18:12.339Z,7.00
2022-07-30T11:20:48.849Z,6.65
2022-07-30T11:23:40.698Z,6.55
2022-07-30T11:26:14.094Z,7.05
2022-07-30T11:28:49.626Z,6.82
2022-07-30T11:31:55.042Z,6.95
2022-07-30T11:34:29.814Z,6.05
2022-07-30T11:37:19.094Z,6.45
2022-07-30T11:40:11.618Z,6.20
2022-07-30T11:42:43.811Z,6.45
2022-07-30T11:45:27.107Z,6.43
2022-07-30T11:48:00.302Z,7.90
2022-07-30T11:50:33.027Z,14.50
2022-07-30T11:53:07.509Z,19.55
2022-07-30T11:55:40.046Z,8.98
2022-07-30T11:58:13.071Z,8.30
2022-07-30T12:00:47.972Z,9.57
2022-07-30T12:03:19.389Z,15.73
2022-07-30T12:05:51.148Z,8.13
2022-07-30T12:08:33.466Z,7.85
2022-07-30T12:11:06.094Z,7.40
2022-07-30T12:13:44.066Z,7.50
2022-07-30T12:16:18.158Z,7.20
2022-07-30T12:18:48.739Z,8.25
2022-07-30T12:21:19.089Z,8.65
2022-07-30T12:23:56.775Z,9.15
2022-07-30T12:26:29.399Z,8.77
2022-07-30T12:29:05.044Z,8.88
2022-07-30T12:31:38.551Z,7.60
2022-07-30T12:34:23.285Z,7.68
2022-07-30T12:36:53.940Z,8.82
2022-07-30T12:39:26.405Z,9.20
2022-07-30T12:41:58.657Z,8.93
2022-07-30T12:44:41.080Z,7.65
2022-07-30T12:47:24.153Z,9.45
2022-07-30T12:49:55.837Z,8.45
2022-07-30T12:52:30.850Z,8.82
2022-07-30T12:55:04.416Z,9.25
2022-07-30T12:57:57.001Z,10.80
2022-07-30T13:00:30.714Z,13.60
2022-07-30T13:03:01.111Z,15.93
2022-07-30T13:05:45.064Z,35.80
2022-07-30T13:08:15.700Z,13.65
2022-07-30T13:10:59.836Z,24.17
2022-07-30T13:13:32.882Z,14.65
2022-07-30T13:16:08.203Z,11.73
2022-07-30T13:18:38.753Z,14.63
2022-07-30T13:21:09.555Z,12.10
2022-07-30T13:23:41.228Z,10.45
2022-07-30T13:26:12.427Z,11.30
2022-07-30T13:28:42.526Z,9.18
2022-07-30T13:31:14.386Z,10.88
2022-07-30T13:33:45.236Z,10.38
2022-07-30T13:36:15.768Z,11.10
2022-07-30T13:38:45.963Z,10.93
2022-07-30T13:41:22.601Z,10.57
2022-07-30T13:43:52.682Z,10.27
2022-07-30T13:46:24.133Z,10.40
2022-07-30T13:48:54.341Z,9.20
2022-07-30T13:51:24.526Z,10.00
2022-07-30T13:53:55.236Z,10.13
2022-07-30T13:56:25.628Z,10.20
2022-07-30T13:58:56.487Z,14.57
2022-07-30T14:01:28.479Z,17.20
2022-07-30T14:03:58.915Z,12.38
2022-07-30T14:06:29.202Z,11.63
2022-07-30T14:08:59.551Z,11.32
2022-07-30T14:11:29.647Z,10.30
2022-07-30T14:14:01.062Z,10.27
2022-07-30T14:16:49.616Z,14.55
2022-07-30T14:19:24.682Z,11.77
2022-07-30T14:21:55.006Z,12.95
2022-07-30T14:24:25.293Z,10.95
2022-07-30T14:26:58.173Z,12.07
2022-07-30T14:29:29.819Z,10.73
2022-07-30T14:32:01.403Z,10.90
2022-07-30T14:34:31.478Z,9.73
2022-07-30T14:37:02.396Z,11.13
2022-07-30T14:39:34.998Z,10.65
2022-07-30T14:42:06.473Z,11.02
2022-07-30T14:44:36.823Z,13.73
2022-07-30T14:47:09.123Z,12.15
2022-07-30T14:49:39.239Z,11.40
2022-07-30T14:52:09.427Z,10.43
2022-07-30T14:54:40.101Z,11.32
2022-07-30T14:57:11.463Z,11.00
2022-07-30T14:59:41.631Z,11.00
2022-07-30T15:02:13.032Z,12.40
2022-07-30T15:04:43.314Z,10.77
2022-07-30T15:07:13.519Z,10.13
2022-07-30T15:09:43.644Z,11.27
2022-07-30T15:12:23.834Z,10.85
2022-07-30T15:14:57.782Z,10.95
2022-07-30T15:17:29.368Z,11.32
2022-07-30T15:20:00.535Z,11.95
2022-07-30T15:22:31.522Z,11.05
2022-07-30T15:25:02.095Z,11.82
2022-07-30T15:27:34.267Z,16.08
2022-07-30T15:30:06.259Z,15.13
2022-07-30T15:32:39.029Z,12.02
2022-07-30T15:35:13.591Z,11.43
2022-07-30T15:37:44.218Z,11.27
2022-07-30T15:40:14.543Z,11.63
2022-07-30T15:42:44.883Z,16.73
2022-07-30T15:45:17.680Z,8.93
2022-07-30T15:47:49.774Z,9.65
2022-07-30T15:50:19.914Z,7.38
2022-07-30T15:52:51.630Z,8.45
2022-07-30T15:55:22.311Z,8.30
2022-07-30T15:57:52.546Z,6.72
2022-07-30T16:00:25.608Z,7.93
2022-07-30T16:03:01.464Z,6.72
2022-07-30T16:05:52.533Z,6.00
2022-07-30T16:08:22.696Z,5.85
2022-07-30T16:10:53.199Z,7.50
2022-07-30T16:13:23.629Z,6.05
2022-07-30T16:15:54.305Z,6.78
2022-07-30T16:18:26.123Z,6.43
2022-07-30T16:20:58.957Z,7.00
2022-07-30T16:23:36.500Z,6.43
2022-07-30T16:26:09.407Z,11.43
2022-07-30T16:28:40.663Z,6.33
2022-07-30T16:31:10.701Z,6.63
2022-07-30T16:33:42.365Z,8.75
2022-07-30T16:36:12.804Z,10.20
2022-07-30T16:38:42.953Z,8.77
2022-07-30T16:41:13.735Z,7.25
2022-07-30T16:43:43.910Z,8.18
2022-07-30T16:46:14.308Z,6.82
2022-07-30T16:48:50.354Z,8.40
2022-07-30T16:51:20.819Z,8.32
2022-07-30T16:53:50.943Z,8.38
2022-07-30T16:56:21.508Z,8.02
2022-07-30T16:58:51.694Z,8.18
2022-07-30T17:01:21.808Z,9.23
2022-07-30T17:03:53.386Z,9.85
2022-07-30T17:06:23.653Z,7.95
2022-07-30T17:08:53.909Z,8.50
2022-07-30T17:11:47.441Z,7.93
2022-07-30T17:14:15.713Z,8.23
2022-07-30T17:16:46.219Z,8.57
2022-07-30T17:19:18.196Z,7.82
2022-07-30T17:21:50.554Z,8.30
2022-07-30T17:24:21.261Z,9.20
2022-07-30T17:26:51.690Z,12.23
2022-07-30T17:29:22.183Z,9.77
2022-07-30T17:31:52.426Z,8.93
2022-07-30T17:34:27.079Z,8.10
2022-07-30T17:36:57.291Z,8.93
2022-07-30T17:40:19.872Z,8.68
2022-07-30T17:42:17.936Z,8.65
2022-07-30T17:44:48.295Z,8.60
2022-07-30T17:47:18.573Z,8.73
2022-07-30T17:49:51.645Z,9.68
2022-07-30T17:52:26.606Z,9.02
2022-07-30T17:54:57.221Z,9.73
2022-07-30T17:57:27.759Z,9.80
2022-07-30T17:59:58.155Z,9.60
2022-07-30T18:02:29.299Z,11.30
2022-07-30T18:05:00.985Z,10.60
2022-07-30T18:07:31.472Z,9.00
2022-07-30T18:10:02.089Z,8.27
2022-07-30T18:12:32.623Z,9.02
2022-07-30T18:15:03.815Z,9.00
2022-07-30T18:17:34.826Z,9.20
2022-07-30T18:20:07.882Z,8.90
2022-07-30T18:22:38.203Z,8.65
2022-07-30T18:25:18.015Z,9.35
2022-07-30T18:27:50.197Z,9.23
2022-07-30T18:30:20.423Z,8.82
2022-07-30T18:32:50.556Z,8.80
2022-07-30T18:35:22.290Z,9.18
2022-07-30T18:37:52.455Z,8.60
2022-07-30T18:40:24.236Z,8.30
2022-07-30T18:42:54.766Z,8.63
2022-07-30T18:45:25.715Z,8.60
2022-07-30T18:47:57.151Z,9.02
2022-07-30T18:50:29.051Z,8.93
2022-07-30T18:52:59.065Z,8.80
2022-07-30T18:55:29.111Z,8.15
2022-07-30T18:58:01.313Z,7.55
2022-07-30T19:00:34.353Z,8.30
2022-07-30T19:03:09.979Z,8.85
2022-07-30T19:05:44.577Z,7.95
2022-07-30T19:08:14.660Z,7.97
2022-07-30T19:10:45.180Z,7.63
2022-07-30T19:13:15.922Z,7.82
2022-07-30T19:15:46.930Z,7.35
2022-07-30T19:18:17.614Z,20.52
2022-07-30T19:20:50.893Z,9.70
2022-07-30T19:25:51.541Z,7.30
2022-07-30T19:28:22.027Z,8.55
2022-07-30T19:30:52.124Z,7.82
2022-07-30T19:33:24.314Z,7.43
2022-07-30T19:35:55.945Z,7.45
2022-07-30T19:38:26.159Z,6.82
2022-07-30T19:40:56.951Z,7.15
2022-07-30T19:43:27.202Z,7.47
2022-07-30T19:45:58.781Z,6.47
2022-07-30T19:48:31.646Z,6.45
2022-07-30T19:53:34.939Z,7.70
2022-07-30T19:56:10.711Z,6.85
2022-07-30T19:58:42.240Z,6.40
2022-07-30T20:01:14.719Z,7.38
2022-07-30T20:03:45.549Z,7.25
2022-07-30T20:06:19.384Z,7.18
2022-07-30T20:08:52.485Z,6.78
2022-07-30T20:11:36.029Z,7.63
2022-07-30T20:14:07.008Z,7.03
2022-07-30T20:16:37.821Z,6.68
2022-07-30T20:19:08.339Z,7.22
2022-07-30T20:21:56.383Z,6.30
2022-07-30T20:24:33.069Z,7.25
2022-07-30T20:27:10.083Z,6.93
2022-07-30T20:29:53.446Z,6.78
2022-07-30T20:32:24.865Z,6.78
2022-07-30T20:34:55.596Z,7.47
2022-07-30T20:37:27.770Z,6.57
2022-07-30T20:39:58.171Z,7.38
2022-07-30T20:42:28.586Z,7.00
2022-07-30T20:44:59.558Z,6.63
2022-07-30T20:47:37.489Z,7.25
2022-07-30T20:50:10.580Z,6.78
2022-07-30T20:52:47.006Z,6.93
2022-07-30T20:55:19.344Z,6.80
2022-07-30T21:03:33.502Z,7.30
2022-07-30T21:06:04.638Z,7.18
2022-07-30T21:08:38.340Z,7.45
2022-07-30T21:11:09.590Z,6.40
2022-07-30T21:13:41.399Z,7.60
2022-07-30T21:16:15.724Z,7.07
2022-07-30T21:18:51.897Z,7.30
2022-07-30T21:21:30.397Z,7.20
2022-07-30T21:24:12.400Z,7.13
2022-07-30T21:26:43.186Z,6.70
2022-07-30T21:29:13.422Z,7.32
2022-07-30T21:32:01.247Z,7.50
2022-07-30T21:34:42.052Z,6.68
2022-07-30T21:37:13.075Z,6.95
2022-07-30T21:39:47.433Z,7.07
2022-07-30T21:42:17.694Z,6.75
2022-07-30T21:44:56.097Z,7.15
2022-07-30T21:47:26.151Z,7.32
2022-07-30T21:49:56.413Z,6.88
2022-07-30T21:52:26.597Z,7.57
2022-07-30T21:54:58.076Z,6.93
2022-07-30T21:57:34.889Z,7.65
2022-07-30T22:00:10.756Z,6.97
2022-07-30T22:02:53.310Z,7.30
2022-07-30T22:05:38.610Z,6.82
2022-07-30T22:08:10.498Z,7.43
2022-07-30T22:10:43.619Z,7.15
2022-07-30T22:13:20.787Z,6.88
2022-07-30T22:15:53.373Z,7.72
2022-07-30T22:18:23.861Z,8.07
2022-07-30T22:20:55.536Z,8.98
2022-07-30T22:23:25.439Z,9.93
2022-07-30T22:26:00.072Z,9.55
2022-07-30T22:28:30.221Z,9.63
2022-07-30T22:31:00.289Z,9.70
2022-07-30T22:33:30.478Z,8.63
2022-07-30T22:36:00.988Z,9.60
2022-07-30T22:38:31.705Z,8.73
2022-07-30T22:41:04.266Z,7.28
2022-07-30T22:43:35.600Z,6.90
2022-07-30T22:46:30.519Z,7.82
2022-07-30T22:49:01.395Z,6.85
2022-07-30T22:51:58.682Z,6.75
2022-07-30T22:54:21.928Z,6.22
2022-07-30T22:56:54.256Z,6.95
2022-07-30T22:59:57.711Z,6.53
2022-07-30T23:02:15.459Z,6.30
2022-07-30T23:07:19.198Z,5.13
2022-07-30T23:09:51.532Z,4.95
2022-07-30T23:12:23.791Z,4.88
2022-07-30T23:12:31.416Z,7.07
2022-07-30T23:12:32.821Z,7.15
2022-07-30T23:14:54.729Z,5.40
2022-07-30T23:17:25.777Z,4.50
2022-07-30T23:19:55.787Z,4.28
2022-07-30T23:22:25.769Z,4.30
2022-07-30T23:24:55.639Z,3.95
2022-07-30T23:27:27.398Z,4.32
2022-07-30T23:29:57.604Z,3.42
2022-07-30T23:32:27.779Z,4.20
2022-07-30T23:34:57.819Z,3.75
2022-07-30T23:37:28.091Z,3.35
2022-07-30T23:39:59.367Z,3.50
2022-07-30T23:42:30.706Z,3.53
2022-07-30T23:45:01.827Z,3.63
2022-07-30T23:47:57.262Z,3.20
2022-07-30T23:50:22.281Z,3.28
2022-07-30T23:52:52.307Z,3.50
2022-07-30T23:55:23.594Z,3.13
2022-07-30T23:57:54.838Z,3.10
